This is the latest recevied weather packets stored in our database for station/object WW5JC. If no packets are shown the sender has not sent any weather packets the latest 10 day(s).
| Time | Temp. | Humidity | Pressure | Rain* | Wind** | Luminosity | Snow |
|---|---|---|---|---|---|---|---|
| 1777071344 | 28.33° C | 73% | 1005.7 hPa | 0 mm | - | 166 W/m² | - |
| 1777071039 | 28.89° C | 72% | 1005.6 hPa | 0 mm | - | 258 W/m² | - |
| 1777070736 | 28.33° C | 72% | 1005.6 hPa | 0 mm | - | 251 W/m² | - |
| 1777070433 | 28.33° C | 72% | 1005.7 hPa | 0 mm | - | 278 W/m² | - |
| 1777070132 | 28.89° C | 75% | 1005.7 hPa | 0 mm | - | 280 W/m² | - |
| 1777069827 | 28.33° C | 75% | 1005.8 hPa | 0 mm | - | 350 W/m² | - |
| 1777069525 | 28.33° C | 75% | 1005.5 hPa | 0 mm | - | 137 W/m² | - |
| 1777069223 | 28.89° C | 73% | 1005.4 hPa | 0 mm | - | 321 W/m² | - |
| 1777068919 | 28.33° C | 74% | 1005.6 hPa | 0 mm | - | 350 W/m² | - |
| 1777068615 | 27.78° C | 78% | 1005.9 hPa | 0 mm | - | 357 W/m² | - |
| 1777068314 | 28.33° C | 75% | 1005.7 hPa | 0 mm | - | 118 W/m² | - |
| 1777068010 | 28.33° C | 74% | 1005.9 hPa | 0 mm | - | 172 W/m² | - |
| 1777067709 | 28.33° C | 71% | 1006 hPa | 0 mm | - | 114 W/m² | - |
| 1777067403 | 28.33° C | 72% | 1006 hPa | 0 mm | - | 358 W/m² | - |
| 1777067096 | 28.89° C | 71% | 1005.7 hPa | 0 mm | - | 132 W/m² | - |
| 1777066792 | 28.89° C | 69% | 1005.7 hPa | 0 mm | - | 425 W/m² | - |
| 1777066488 | 28.89° C | 70% | 1005.7 hPa | 0 mm | - | 431 W/m² | - |
| 1777066183 | 28.89° C | 71% | 1005.8 hPa | 0 mm | - | 461 W/m² | - |
| 1777065883 | 28.33° C | 75% | 1005.6 hPa | 0 mm | - | 481 W/m² | - |
| 1777065578 | 29.44° C | 72% | 1005.8 hPa | 0 mm | - | 280 W/m² | - |
| 1777065273 | 29.44° C | 71% | 1005.8 hPa | 0 mm | - | 570 W/m² | - |
| 1777064970 | 28.89° C | 71% | 1005.9 hPa | 0 mm | - | 532 W/m² | - |
| 1777064667 | 28.89° C | 72% | 1005.9 hPa | 0 mm | - | 497 W/m² | - |
| 1777064363 | 28.89° C | 72% | 1005.8 hPa | 0 mm | - | 578 W/m² | - |
| 1777064059 | 28.89° C | 70% | 1006.1 hPa | 0 mm | - | 572 W/m² | - |
* Rain latest hour (hover to see other rain measurements)
** Current wind speed in m/s (hover to see current wind gust speed)